PEA weather

Penneshaw Airport
Ironstone, South Australia, Australia

Public forecast

Using degrees Celsius for public forecast. Weather courtesy of forecast.io.

Closest aviation weather report (METAR) to Penneshaw Airport

Closest report is Adelaide International Airport, 56.1 nm (103.8 km) NNE. Retrieved 2020/02/17 15:30 UTC (0 seconds ago):

YPAD 171530Z 25003KT CAVOK 21/16 Q1008 FM1630 21016KT 9999 -SHRA BKN020

Closest aviation forecast (TAF) to Penneshaw Airport

Closest forecast is Adelaide International Airport, 56.1 nm (103.8 km) NNE. Retrieved 2020/02/17 12:00 UTC (3 hours ago):

TAF YPAD 171106Z 1712/1818 23010KT CAVOK FM171600 21016KT 9999 -SHRA BKN020 FM180000 22020G30KT 9999 -SHRA SCT020 SCT035 FM181000 19014KT 9999 NSW BKN030